sensor_id;sensor_type;location;lat;lon;timestamp;pressure;altitude;pressure_sealevel;temperature;humidity
7111;BME280;3597;42.650;23.386;2024-02-23T00:02:19;95849.94;;;6.05;59.04
7111;BME280;3597;42.650;23.386;2024-02-23T00:04:45;95860.78;;;6.15;58.09
7111;BME280;3597;42.650;23.386;2024-02-23T00:07:10;95860.41;;;6.25;56.95
7111;BME280;3597;42.650;23.386;2024-02-23T00:09:37;95871.38;;;6.31;58.57
7111;BME280;3597;42.650;23.386;2024-02-23T00:12:03;95860.44;;;6.34;57.39
7111;BME280;3597;42.650;23.386;2024-02-23T00:14:29;95866.72;;;6.31;57.01
7111;BME280;3597;42.650;23.386;2024-02-23T00:16:56;95849.44;;;6.20;58.38
7111;BME280;3597;42.650;23.386;2024-02-23T00:19:22;95831.84;;;6.15;57.64
7111;BME280;3597;42.650;23.386;2024-02-23T00:21:49;95836.38;;;5.96;58.55
7111;BME280;3597;42.650;23.386;2024-02-23T00:24:16;95835.25;;;6.06;57.94
7111;BME280;3597;42.650;23.386;2024-02-23T00:26:43;95834.69;;;6.12;57.78
7111;BME280;3597;42.650;23.386;2024-02-23T00:29:08;95838.00;;;6.16;59.80
7111;BME280;3597;42.650;23.386;2024-02-23T00:31:37;95833.72;;;6.05;58.67
7111;BME280;3597;42.650;23.386;2024-02-23T00:34:03;95850.47;;;6.22;58.34
7111;BME280;3597;42.650;23.386;2024-02-23T00:36:28;95838.47;;;6.23;58.02
7111;BME280;3597;42.650;23.386;2024-02-23T00:38:54;95820.28;;;6.15;58.50
7111;BME280;3597;42.650;23.386;2024-02-23T00:41:20;95809.75;;;6.07;57.75
7111;BME280;3597;42.650;23.386;2024-02-23T00:43:45;95825.78;;;6.02;58.95
7111;BME280;3597;42.650;23.386;2024-02-23T00:46:13;95833.63;;;6.09;59.69
7111;BME280;3597;42.650;23.386;2024-02-23T00:48:39;95849.59;;;6.25;58.32
7111;BME280;3597;42.650;23.386;2024-02-23T00:51:05;95797.69;;;5.99;57.01
7111;BME280;3597;42.650;23.386;2024-02-23T00:53:31;95824.75;;;6.08;60.11
7111;BME280;3597;42.650;23.386;2024-02-23T00:55:57;95849.72;;;6.22;58.82
7111;BME280;3597;42.650;23.386;2024-02-23T00:58:23;95840.16;;;6.30;57.68
7111;BME280;3597;42.650;23.386;2024-02-23T01:00:49;95832.03;;;6.21;57.28
7111;BME280;3597;42.650;23.386;2024-02-23T01:03:14;95844.31;;;6.22;58.78
7111;BME280;3597;42.650;23.386;2024-02-23T01:05:40;95844.63;;;6.24;59.27
7111;BME280;3597;42.650;23.386;2024-02-23T01:08:08;95815.03;;;6.11;57.98
7111;BME280;3597;42.650;23.386;2024-02-23T01:10:34;95829.75;;;6.19;58.88
7111;BME280;3597;42.650;23.386;2024-02-23T01:12:59;95833.78;;;6.15;60.04
7111;BME280;3597;42.650;23.386;2024-02-23T01:15:25;95823.13;;;6.11;58.61
7111;BME280;3597;42.650;23.386;2024-02-23T01:17:51;95809.44;;;6.05;59.35
7111;BME280;3597;42.650;23.386;2024-02-23T01:20:17;95813.63;;;6.06;58.69
7111;BME280;3597;42.650;23.386;2024-02-23T01:22:43;95828.66;;;6.07;58.33
7111;BME280;3597;42.650;23.386;2024-02-23T01:25:08;95824.44;;;6.06;58.29
7111;BME280;3597;42.650;23.386;2024-02-23T01:27:34;95813.91;;;5.99;59.09
7111;BME280;3597;42.650;23.386;2024-02-23T01:30:00;95806.56;;;6.00;58.24
7111;BME280;3597;42.650;23.386;2024-02-23T01:32:25;95822.94;;;6.05;59.41
7111;BME280;3597;42.650;23.386;2024-02-23T01:34:51;95786.78;;;5.81;58.99
7111;BME280;3597;42.650;23.386;2024-02-23T01:37:17;95814.34;;;5.98;58.39
7111;BME280;3597;42.650;23.386;2024-02-23T01:39:43;95803.88;;;5.78;61.78
7111;BME280;3597;42.650;23.386;2024-02-23T01:42:08;95803.28;;;5.83;60.89
7111;BME280;3597;42.650;23.386;2024-02-23T01:44:34;95814.19;;;5.92;60.53
7111;BME280;3597;42.650;23.386;2024-02-23T01:47:00;95802.22;;;5.81;59.57
7111;BME280;3597;42.650;23.386;2024-02-23T01:49:26;95800.28;;;5.81;59.73
7111;BME280;3597;42.650;23.386;2024-02-23T01:51:58;95804.81;;;5.84;59.09
7111;BME280;3597;42.650;23.386;2024-02-23T01:54:24;95804.31;;;5.77;58.27
7111;BME280;3597;42.650;23.386;2024-02-23T01:56:51;95796.97;;;5.77;58.43
7111;BME280;3597;42.650;23.386;2024-02-23T01:59:16;95787.34;;;5.76;58.22
7111;BME280;3597;42.650;23.386;2024-02-23T02:01:45;95795.13;;;5.74;60.68
7111;BME280;3597;42.650;23.386;2024-02-23T02:04:11;95796.66;;;5.75;59.14
7111;BME280;3597;42.650;23.386;2024-02-23T02:06:37;95795.72;;;5.69;57.80
7111;BME280;3597;42.650;23.386;2024-02-23T02:09:02;95784.13;;;5.59;59.06
7111;BME280;3597;42.650;23.386;2024-02-23T02:11:28;95805.88;;;5.65;60.00
7111;BME280;3597;42.650;23.386;2024-02-23T02:13:54;95796.16;;;5.67;59.08
7111;BME280;3597;42.650;23.386;2024-02-23T02:16:19;95803.94;;;5.65;58.55
7111;BME280;3597;42.650;23.386;2024-02-23T02:18:45;95786.25;;;5.43;57.65
7111;BME280;3597;42.650;23.386;2024-02-23T02:21:11;95812.22;;;5.71;58.40
7111;BME280;3597;42.650;23.386;2024-02-23T02:23:37;95831.31;;;5.77;58.05
7111;BME280;3597;42.650;23.386;2024-02-23T02:26:03;95838.91;;;5.69;58.33
7111;BME280;3597;42.650;23.386;2024-02-23T02:28:29;95834.13;;;5.73;57.90
7111;BME280;3597;42.650;23.386;2024-02-23T02:30:55;95816.19;;;5.57;57.98
7111;BME280;3597;42.650;23.386;2024-02-23T02:33:22;95799.03;;;5.29;60.80
7111;BME280;3597;42.650;23.386;2024-02-23T02:35:48;95836.63;;;5.46;61.98
7111;BME280;3597;42.650;23.386;2024-02-23T02:38:15;95812.75;;;5.35;61.41
7111;BME280;3597;42.650;23.386;2024-02-23T02:40:41;95822.53;;;5.42;60.72
7111;BME280;3597;42.650;23.386;2024-02-23T02:43:07;95826.97;;;5.57;60.07
7111;BME280;3597;42.650;23.386;2024-02-23T02:45:33;95817.31;;;5.47;58.92
7111;BME280;3597;42.650;23.386;2024-02-23T02:48:01;95804.13;;;5.49;57.37
7111;BME280;3597;42.650;23.386;2024-02-23T02:50:31;95835.91;;;5.67;57.90
7111;BME280;3597;42.650;23.386;2024-02-23T02:52:56;95818.56;;;5.55;58.29
7111;BME280;3597;42.650;23.386;2024-02-23T02:55:22;95828.06;;;5.60;59.78
7111;BME280;3597;42.650;23.386;2024-02-23T02:57:48;95843.69;;;5.65;57.52
7111;BME280;3597;42.650;23.386;2024-02-23T03:00:14;95814.94;;;5.49;58.35
7111;BME280;3597;42.650;23.386;2024-02-23T03:02:39;95814.75;;;5.44;60.46
7111;BME280;3597;42.650;23.386;2024-02-23T03:05:05;95813.53;;;5.45;60.06
7111;BME280;3597;42.650;23.386;2024-02-23T03:07:31;95816.69;;;5.43;59.21
7111;BME280;3597;42.650;23.386;2024-02-23T03:09:56;95809.16;;;5.38;60.18
7111;BME280;3597;42.650;23.386;2024-02-23T03:12:22;95807.53;;;5.41;59.15
7111;BME280;3597;42.650;23.386;2024-02-23T03:14:48;95801.06;;;5.38;60.77
7111;BME280;3597;42.650;23.386;2024-02-23T03:17:13;95815.31;;;5.39;61.99
7111;BME280;3597;42.650;23.386;2024-02-23T03:19:39;95808.28;;;5.41;61.53
7111;BME280;3597;42.650;23.386;2024-02-23T03:22:04;95776.34;;;5.18;59.27
7111;BME280;3597;42.650;23.386;2024-02-23T03:24:30;95794.91;;;5.38;57.76
7111;BME280;3597;42.650;23.386;2024-02-23T03:26:56;95783.81;;;5.36;58.53
7111;BME280;3597;42.650;23.386;2024-02-23T03:29:22;95803.00;;;5.38;59.08
7111;BME280;3597;42.650;23.386;2024-02-23T03:31:55;95816.69;;;5.43;57.73
7111;BME280;3597;42.650;23.386;2024-02-23T03:34:21;95808.81;;;5.14;57.88
7111;BME280;3597;42.650;23.386;2024-02-23T03:36:46;95811.00;;;5.07;62.23
7111;BME280;3597;42.650;23.386;2024-02-23T03:39:13;95820.47;;;5.11;59.96
7111;BME280;3597;42.650;23.386;2024-02-23T03:41:38;95814.28;;;5.02;61.63
7111;BME280;3597;42.650;23.386;2024-02-23T03:44:04;95820.28;;;5.06;59.40
7111;BME280;3597;42.650;23.386;2024-02-23T03:46:30;95827.75;;;5.02;61.00
7111;BME280;3597;42.650;23.386;2024-02-23T03:48:56;95818.66;;;4.74;61.58
7111;BME280;3597;42.650;23.386;2024-02-23T03:51:21;95836.72;;;4.86;61.75
7111;BME280;3597;42.650;23.386;2024-02-23T03:53:47;95843.53;;;4.78;62.63
7111;BME280;3597;42.650;23.386;2024-02-23T03:56:13;95830.84;;;4.66;61.48
7111;BME280;3597;42.650;23.386;2024-02-23T03:58:38;95837.97;;;4.60;63.90
7111;BME280;3597;42.650;23.386;2024-02-23T04:01:04;95847.78;;;4.66;64.11
7111;BME280;3597;42.650;23.386;2024-02-23T04:03:29;95825.91;;;4.51;61.68
7111;BME280;3597;42.650;23.386;2024-02-23T04:05:55;95850.72;;;4.59;62.79
7111;BME280;3597;42.650;23.386;2024-02-23T04:08:21;95839.59;;;4.57;60.45
7111;BME280;3597;42.650;23.386;2024-02-23T04:10:46;95828.81;;;4.57;60.54
7111;BME280;3597;42.650;23.386;2024-02-23T04:13:12;95818.28;;;4.50;59.91
7111;BME280;3597;42.650;23.386;2024-02-23T04:15:43;95841.41;;;4.60;60.81
7111;BME280;3597;42.650;23.386;2024-02-23T04:18:09;95840.22;;;4.61;62.12
7111;BME280;3597;42.650;23.386;2024-02-23T04:20:35;95826.03;;;4.48;62.83
7111;BME280;3597;42.650;23.386;2024-02-23T04:23:00;95845.22;;;4.50;63.07
7111;BME280;3597;42.650;23.386;2024-02-23T04:25:26;95815.03;;;4.42;62.65
7111;BME280;3597;42.650;23.386;2024-02-23T04:27:52;95801.69;;;4.39;62.01
7111;BME280;3597;42.650;23.386;2024-02-23T04:30:17;95824.63;;;4.56;58.00
7111;BME280;3597;42.650;23.386;2024-02-23T04:32:43;95809.09;;;4.35;61.02
7111;BME280;3597;42.650;23.386;2024-02-23T04:35:09;95830.09;;;4.52;61.83
7111;BME280;3597;42.650;23.386;2024-02-23T04:37:35;95816.31;;;4.38;62.21
7111;BME280;3597;42.650;23.386;2024-02-23T04:40:01;95833.16;;;4.42;63.06
7111;BME280;3597;42.650;23.386;2024-02-23T04:42:26;95836.56;;;4.42;64.01
7111;BME280;3597;42.650;23.386;2024-02-23T04:44:53;95807.06;;;4.26;62.66
7111;BME280;3597;42.650;23.386;2024-02-23T04:47:20;95817.94;;;4.35;62.54
7111;BME280;3597;42.650;23.386;2024-02-23T04:49:46;95839.25;;;4.42;63.63
7111;BME280;3597;42.650;23.386;2024-02-23T04:52:11;95832.69;;;4.43;62.68
7111;BME280;3597;42.650;23.386;2024-02-23T04:54:37;95826.69;;;4.39;62.28
7111;BME280;3597;42.650;23.386;2024-02-23T04:57:03;95833.56;;;4.28;62.42
7111;BME280;3597;42.650;23.386;2024-02-23T04:59:28;95846.50;;;4.20;63.87
7111;BME280;3597;42.650;23.386;2024-02-23T05:01:55;95845.31;;;4.21;63.67
7111;BME280;3597;42.650;23.386;2024-02-23T05:04:21;95855.66;;;4.35;62.97
7111;BME280;3597;42.650;23.386;2024-02-23T05:06:46;95852.41;;;4.28;64.08
7111;BME280;3597;42.650;23.386;2024-02-23T05:09:12;95858.56;;;4.28;64.58
7111;BME280;3597;42.650;23.386;2024-02-23T05:11:38;95849.72;;;4.28;60.32
7111;BME280;3597;42.650;23.386;2024-02-23T05:14:04;95832.41;;;4.16;63.42
7111;BME280;3597;42.650;23.386;2024-02-23T05:16:29;95834.44;;;4.25;62.75
7111;BME280;3597;42.650;23.386;2024-02-23T05:18:55;95836.06;;;4.22;60.90
7111;BME280;3597;42.650;23.386;2024-02-23T05:21:20;95842.72;;;4.30;60.56
7111;BME280;3597;42.650;23.386;2024-02-23T05:23:46;95845.84;;;4.29;60.28
7111;BME280;3597;42.650;23.386;2024-02-23T05:26:12;95867.28;;;4.45;59.89
7111;BME280;3597;42.650;23.386;2024-02-23T05:28:37;95848.97;;;4.14;63.17
7111;BME280;3597;42.650;23.386;2024-02-23T05:31:03;95844.03;;;4.13;61.63
7111;BME280;3597;42.650;23.386;2024-02-23T05:33:30;95874.41;;;4.39;61.72
7111;BME280;3597;42.650;23.386;2024-02-23T05:35:55;95883.03;;;4.34;62.63
7111;BME280;3597;42.650;23.386;2024-02-23T05:38:21;95881.06;;;4.34;62.01
7111;BME280;3597;42.650;23.386;2024-02-23T05:40:46;95866.44;;;4.23;62.70
7111;BME280;3597;42.650;23.386;2024-02-23T05:43:14;95860.72;;;4.21;62.84
7111;BME280;3597;42.650;23.386;2024-02-23T05:45:39;95868.81;;;4.33;63.85
7111;BME280;3597;42.650;23.386;2024-02-23T05:48:05;95885.63;;;4.50;61.61
7111;BME280;3597;42.650;23.386;2024-02-23T05:50:32;95855.34;;;4.59;62.47
7111;BME280;3597;42.650;23.386;2024-02-23T05:52:57;95882.38;;;4.80;62.76
7111;BME280;3597;42.650;23.386;2024-02-23T05:55:23;95870.09;;;4.67;61.55
7111;BME280;3597;42.650;23.386;2024-02-23T05:57:49;95890.00;;;4.94;61.03
7111;BME280;3597;42.650;23.386;2024-02-23T06:00:16;95865.72;;;4.94;60.37
7111;BME280;3597;42.650;23.386;2024-02-23T06:02:45;95880.72;;;4.95;59.89
7111;BME280;3597;42.650;23.386;2024-02-23T06:05:12;95884.91;;;5.09;59.58
7111;BME280;3597;42.650;23.386;2024-02-23T06:07:38;95894.38;;;5.26;58.84
7111;BME280;3597;42.650;23.386;2024-02-23T06:10:04;95883.69;;;5.23;58.57
7111;BME280;3597;42.650;23.386;2024-02-23T06:12:30;95907.69;;;5.43;57.46
7111;BME280;3597;42.650;23.386;2024-02-23T06:14:56;95903.06;;;5.43;56.95
7111;BME280;3597;42.650;23.386;2024-02-23T06:17:22;95884.16;;;5.43;56.68
7111;BME280;3597;42.650;23.386;2024-02-23T06:19:48;95865.13;;;5.47;56.75
7111;BME280;3597;42.650;23.386;2024-02-23T06:22:14;95901.69;;;5.82;55.23
7111;BME280;3597;42.650;23.386;2024-02-23T06:24:42;95912.28;;;6.11;53.85
7111;BME280;3597;42.650;23.386;2024-02-23T06:27:08;95895.81;;;6.18;54.60
7111;BME280;3597;42.650;23.386;2024-02-23T06:29:34;95895.53;;;6.25;52.86
7111;BME280;3597;42.650;23.386;2024-02-23T06:31:59;95886.41;;;6.32;52.53
7111;BME280;3597;42.650;23.386;2024-02-23T06:34:26;95884.66;;;6.47;53.25
7111;BME280;3597;42.650;23.386;2024-02-23T06:36:52;95899.19;;;6.71;53.25
7111;BME280;3597;42.650;23.386;2024-02-23T06:39:18;95898.63;;;6.86;53.43
7111;BME280;3597;42.650;23.386;2024-02-23T06:41:45;95904.06;;;6.95;54.00
7111;BME280;3597;42.650;23.386;2024-02-23T06:44:11;95903.81;;;7.11;51.90
7111;BME280;3597;42.650;23.386;2024-02-23T06:46:36;95896.94;;;7.28;52.51
7111;BME280;3597;42.650;23.386;2024-02-23T06:49:02;95896.94;;;7.37;52.52
7111;BME280;3597;42.650;23.386;2024-02-23T06:51:31;95908.69;;;7.62;50.39
7111;BME280;3597;42.650;23.386;2024-02-23T06:53:57;95892.75;;;7.54;50.26
7111;BME280;3597;42.650;23.386;2024-02-23T06:56:23;95902.38;;;7.74;50.10
7111;BME280;3597;42.650;23.386;2024-02-23T06:58:48;95881.75;;;7.76;50.80
7111;BME280;3597;42.650;23.386;2024-02-23T07:01:14;95887.13;;;7.94;50.75
7111;BME280;3597;42.650;23.386;2024-02-23T07:03:40;95904.88;;;8.14;50.62
7111;BME280;3597;42.650;23.386;2024-02-23T07:06:08;95882.59;;;8.10;51.05
7111;BME280;3597;42.650;23.386;2024-02-23T07:08:35;95896.41;;;8.39;49.08
7111;BME280;3597;42.650;23.386;2024-02-23T07:11:01;95894.06;;;8.65;47.61
7111;BME280;3597;42.650;23.386;2024-02-23T07:13:27;95873.28;;;8.62;47.70
7111;BME280;3597;42.650;23.386;2024-02-23T07:15:52;95881.50;;;8.77;48.98
7111;BME280;3597;42.650;23.386;2024-02-23T07:18:18;95884.88;;;8.95;48.84
7111;BME280;3597;42.650;23.386;2024-02-23T07:20:43;95901.69;;;9.08;49.31
7111;BME280;3597;42.650;23.386;2024-02-23T07:23:10;95881.41;;;9.19;48.99
7111;BME280;3597;42.650;23.386;2024-02-23T07:25:35;95858.78;;;9.22;49.31
7111;BME280;3597;42.650;23.386;2024-02-23T07:28:01;95874.78;;;9.43;48.33
7111;BME280;3597;42.650;23.386;2024-02-23T07:30:26;95862.16;;;9.55;48.15
7111;BME280;3597;42.650;23.386;2024-02-23T07:32:52;95868.19;;;9.74;48.04
7111;BME280;3597;42.650;23.386;2024-02-23T07:35:18;95872.25;;;9.93;47.44
7111;BME280;3597;42.650;23.386;2024-02-23T07:37:43;95861.28;;;10.02;43.63
7111;BME280;3597;42.650;23.386;2024-02-23T07:40:09;95877.59;;;10.17;42.12
7111;BME280;3597;42.650;23.386;2024-02-23T07:42:35;95893.09;;;10.40;43.13
7111;BME280;3597;42.650;23.386;2024-02-23T07:45:04;95877.59;;;10.61;43.13
7111;BME280;3597;42.650;23.386;2024-02-23T07:47:33;95876.84;;;10.60;42.91
7111;BME280;3597;42.650;23.386;2024-02-23T07:49:59;95865.56;;;10.68;43.11
7111;BME280;3597;42.650;23.386;2024-02-23T07:52:25;95873.88;;;10.93;43.59
7111;BME280;3597;42.650;23.386;2024-02-23T07:54:54;95876.41;;;11.17;43.52
7111;BME280;3597;42.650;23.386;2024-02-23T07:57:20;95848.25;;;11.20;44.43
7111;BME280;3597;42.650;23.386;2024-02-23T07:59:46;95851.31;;;11.48;42.43
7111;BME280;3597;42.650;23.386;2024-02-23T08:02:11;95856.06;;;11.53;41.75
7111;BME280;3597;42.650;23.386;2024-02-23T08:04:37;95856.03;;;11.73;44.83
7111;BME280;3597;42.650;23.386;2024-02-23T08:07:03;95865.44;;;11.93;41.98
7111;BME280;3597;42.650;23.386;2024-02-23T08:09:29;95872.25;;;12.08;42.58
7111;BME280;3597;42.650;23.386;2024-02-23T08:11:55;95848.00;;;12.10;40.91
7111;BME280;3597;42.650;23.386;2024-02-23T08:14:21;95846.59;;;12.21;40.98
7111;BME280;3597;42.650;23.386;2024-02-23T08:16:46;95875.09;;;12.45;39.62
7111;BME280;3597;42.650;23.386;2024-02-23T08:19:12;95845.16;;;12.57;41.25
7111;BME280;3597;42.650;23.386;2024-02-23T08:21:38;95866.69;;;12.86;39.71
7111;BME280;3597;42.650;23.386;2024-02-23T08:24:04;95847.34;;;12.89;38.64
7111;BME280;3597;42.650;23.386;2024-02-23T08:26:30;95845.41;;;12.96;38.75
7111;BME280;3597;42.650;23.386;2024-02-23T08:28:56;95847.00;;;13.13;37.48
7111;BME280;3597;42.650;23.386;2024-02-23T08:31:21;95834.38;;;13.16;38.50
7111;BME280;3597;42.650;23.386;2024-02-23T08:33:47;95856.59;;;13.46;38.90
7111;BME280;3597;42.650;23.386;2024-02-23T08:36:12;95837.72;;;13.48;36.68
7111;BME280;3597;42.650;23.386;2024-02-23T08:38:38;95864.16;;;13.79;36.39
7111;BME280;3597;42.650;23.386;2024-02-23T08:41:04;95848.19;;;13.55;37.04
7111;BME280;3597;42.650;23.386;2024-02-23T08:43:31;95879.34;;;13.80;37.45
7111;BME280;3597;42.650;23.386;2024-02-23T08:45:56;95880.63;;;13.90;38.57
7111;BME280;3597;42.650;23.386;2024-02-23T08:48:22;95871.66;;;13.89;36.81
7111;BME280;3597;42.650;23.386;2024-02-23T08:50:47;95851.00;;;13.88;37.52
7111;BME280;3597;42.650;23.386;2024-02-23T08:53:13;95857.75;;;14.04;37.02
7111;BME280;3597;42.650;23.386;2024-02-23T08:55:39;95868.25;;;14.11;37.20
7111;BME280;3597;42.650;23.386;2024-02-23T08:58:04;95865.22;;;14.03;36.24
7111;BME280;3597;42.650;23.386;2024-02-23T09:00:32;95874.91;;;13.99;35.77
7111;BME280;3597;42.650;23.386;2024-02-23T09:02:57;95873.72;;;14.11;35.55
7111;BME280;3597;42.650;23.386;2024-02-23T09:05:23;95856.03;;;14.12;34.41
7111;BME280;3597;42.650;23.386;2024-02-23T09:07:48;95858.03;;;14.23;35.41
7111;BME280;3597;42.650;23.386;2024-02-23T09:10:14;95842.41;;;14.40;36.47
7111;BME280;3597;42.650;23.386;2024-02-23T09:12:40;95859.59;;;14.52;35.51
7111;BME280;3597;42.650;23.386;2024-02-23T09:15:06;95852.63;;;14.45;33.50
7111;BME280;3597;42.650;23.386;2024-02-23T09:17:32;95862.59;;;14.54;34.35
7111;BME280;3597;42.650;23.386;2024-02-23T09:19:57;95873.25;;;14.74;34.74
7111;BME280;3597;42.650;23.386;2024-02-23T09:22:23;95868.78;;;14.82;35.10
7111;BME280;3597;42.650;23.386;2024-02-23T09:24:49;95859.06;;;14.81;35.10
7111;BME280;3597;42.650;23.386;2024-02-23T09:27:15;95875.00;;;14.94;35.19
7111;BME280;3597;42.650;23.386;2024-02-23T09:29:41;95878.72;;;14.91;35.48
7111;BME280;3597;42.650;23.386;2024-02-23T09:32:09;95870.03;;;14.87;34.14
7111;BME280;3597;42.650;23.386;2024-02-23T09:34:35;95860.31;;;14.97;35.92
7111;BME280;3597;42.650;23.386;2024-02-23T09:37:01;95881.94;;;15.06;34.38
7111;BME280;3597;42.650;23.386;2024-02-23T09:39:27;95868.72;;;15.15;33.33
7111;BME280;3597;42.650;23.386;2024-02-23T09:41:56;95872.69;;;15.14;32.81
7111;BME280;3597;42.650;23.386;2024-02-23T09:44:22;95873.94;;;15.25;33.25
7111;BME280;3597;42.650;23.386;2024-02-23T09:46:48;95855.47;;;15.31;34.83
7111;BME280;3597;42.650;23.386;2024-02-23T09:49:15;95862.44;;;15.32;34.00
7111;BME280;3597;42.650;23.386;2024-02-23T09:51:41;95862.97;;;15.30;34.22
7111;BME280;3597;42.650;23.386;2024-02-23T09:54:07;95857.19;;;15.34;34.52
7111;BME280;3597;42.650;23.386;2024-02-23T09:56:33;95857.16;;;15.45;32.85
7111;BME280;3597;42.650;23.386;2024-02-23T09:59:02;95856.91;;;15.54;33.80
7111;BME280;3597;42.650;23.386;2024-02-23T10:01:30;95855.16;;;15.57;34.36
7111;BME280;3597;42.650;23.386;2024-02-23T10:04:01;95837.97;;;15.45;33.84
7111;BME280;3597;42.650;23.386;2024-02-23T10:06:29;95835.69;;;15.49;34.91
7111;BME280;3597;42.650;23.386;2024-02-23T10:08:55;95840.72;;;15.56;34.12
7111;BME280;3597;42.650;23.386;2024-02-23T10:11:22;95847.66;;;15.57;34.28
7111;BME280;3597;42.650;23.386;2024-02-23T10:13:50;95838.94;;;15.59;34.35
7111;BME280;3597;42.650;23.386;2024-02-23T10:16:18;95831.72;;;15.50;34.63
7111;BME280;3597;42.650;23.386;2024-02-23T10:18:46;95837.16;;;15.67;33.96
7111;BME280;3597;42.650;23.386;2024-02-23T10:21:14;95837.44;;;15.58;33.57
7111;BME280;3597;42.650;23.386;2024-02-23T10:23:40;95833.22;;;15.57;34.17
7111;BME280;3597;42.650;23.386;2024-02-23T10:26:06;95841.91;;;15.61;34.83
7111;BME280;3597;42.650;23.386;2024-02-23T10:28:32;95840.84;;;15.75;34.66
7111;BME280;3597;42.650;23.386;2024-02-23T10:30:58;95821.69;;;15.69;33.39
7111;BME280;3597;42.650;23.386;2024-02-23T10:33:25;95820.38;;;15.76;34.57
7111;BME280;3597;42.650;23.386;2024-02-23T10:35:56;95830.06;;;15.88;34.81
7111;BME280;3597;42.650;23.386;2024-02-23T10:38:26;95832.53;;;15.92;34.26
7111;BME280;3597;42.650;23.386;2024-02-23T10:40:55;95777.56;;;15.62;34.22
7111;BME280;3597;42.650;23.386;2024-02-23T10:43:29;95782.25;;;15.72;34.33
7111;BME280;3597;42.650;23.386;2024-02-23T10:45:57;95821.03;;;15.99;34.32
7111;BME280;3597;42.650;23.386;2024-02-23T10:48:24;95814.97;;;16.06;34.91
7111;BME280;3597;42.650;23.386;2024-02-23T10:50:50;95804.75;;;16.06;34.63
7111;BME280;3597;42.650;23.386;2024-02-23T10:53:16;95795.97;;;16.08;34.34
7111;BME280;3597;42.650;23.386;2024-02-23T10:55:43;95765.19;;;15.91;33.83
7111;BME280;3597;42.650;23.386;2024-02-23T10:58:10;95789.66;;;16.18;33.53
7111;BME280;3597;42.650;23.386;2024-02-23T11:00:38;95793.84;;;16.25;34.16
7111;BME280;3597;42.650;23.386;2024-02-23T11:03:05;95794.25;;;16.40;33.44
7111;BME280;3597;42.650;23.386;2024-02-23T11:05:33;95798.56;;;16.30;33.91
7111;BME280;3597;42.650;23.386;2024-02-23T11:07:58;95770.88;;;16.28;34.06
7111;BME280;3597;42.650;23.386;2024-02-23T11:10:24;95772.13;;;16.27;33.99
7111;BME280;3597;42.650;23.386;2024-02-23T11:12:59;95790.97;;;16.42;33.96
7111;BME280;3597;42.650;23.386;2024-02-23T11:15:26;95791.19;;;16.49;33.36
7111;BME280;3597;42.650;23.386;2024-02-23T11:17:52;95775.59;;;16.33;34.26
7111;BME280;3597;42.650;23.386;2024-02-23T11:20:18;95778.69;;;16.48;34.15
7111;BME280;3597;42.650;23.386;2024-02-23T11:22:44;95758.72;;;16.48;33.96
7111;BME280;3597;42.650;23.386;2024-02-23T11:25:10;95782.97;;;16.74;34.76
7111;BME280;3597;42.650;23.386;2024-02-23T11:27:37;95784.41;;;16.80;34.04
7111;BME280;3597;42.650;23.386;2024-02-23T11:30:07;95776.91;;;16.81;33.77
7111;BME280;3597;42.650;23.386;2024-02-23T11:32:44;95774.06;;;16.92;33.72
7111;BME280;3597;42.650;23.386;2024-02-23T11:35:12;95759.00;;;16.74;33.44
7111;BME280;3597;42.650;23.386;2024-02-23T11:37:47;95765.75;;;16.73;33.37
7111;BME280;3597;42.650;23.386;2024-02-23T11:40:13;95773.59;;;16.63;33.99
7111;BME280;3597;42.650;23.386;2024-02-23T11:42:42;95720.13;;;16.35;34.28
7111;BME280;3597;42.650;23.386;2024-02-23T11:45:10;95764.31;;;16.67;34.49
7111;BME280;3597;42.650;23.386;2024-02-23T11:47:37;95739.13;;;16.62;34.42
7111;BME280;3597;42.650;23.386;2024-02-23T11:50:06;95745.94;;;16.80;34.32
7111;BME280;3597;42.650;23.386;2024-02-23T11:52:32;95742.00;;;16.76;33.22
7111;BME280;3597;42.650;23.386;2024-02-23T11:54:59;95741.53;;;16.72;33.06
7111;BME280;3597;42.650;23.386;2024-02-23T11:57:24;95765.25;;;16.75;34.17
7111;BME280;3597;42.650;23.386;2024-02-23T11:59:51;95750.59;;;16.67;34.56
7111;BME280;3597;42.650;23.386;2024-02-23T12:02:17;95771.34;;;16.62;34.00
7111;BME280;3597;42.650;23.386;2024-02-23T12:04:43;95753.41;;;16.25;34.35
7111;BME280;3597;42.650;23.386;2024-02-23T12:07:09;95749.78;;;16.12;34.99
7111;BME280;3597;42.650;23.386;2024-02-23T12:09:35;95734.66;;;16.00;35.40
7111;BME280;3597;42.650;23.386;2024-02-23T12:12:01;95761.72;;;16.20;35.19
7111;BME280;3597;42.650;23.386;2024-02-23T12:14:27;95746.25;;;16.17;34.42
7111;BME280;3597;42.650;23.386;2024-02-23T12:16:53;95736.06;;;16.12;35.42
7111;BME280;3597;42.650;23.386;2024-02-23T12:19:18;95766.41;;;16.25;35.42
7111;BME280;3597;42.650;23.386;2024-02-23T12:21:47;95748.13;;;16.33;35.34
7111;BME280;3597;42.650;23.386;2024-02-23T12:24:12;95745.72;;;16.24;34.36
7111;BME280;3597;42.650;23.386;2024-02-23T12:26:38;95741.91;;;16.27;34.32
7111;BME280;3597;42.650;23.386;2024-02-23T12:29:04;95749.31;;;16.38;35.31
7111;BME280;3597;42.650;23.386;2024-02-23T12:31:33;95718.88;;;16.36;34.76
7111;BME280;3597;42.650;23.386;2024-02-23T12:34:00;95742.91;;;16.54;34.33
7111;BME280;3597;42.650;23.386;2024-02-23T12:36:25;95713.84;;;16.40;34.34
7111;BME280;3597;42.650;23.386;2024-02-23T12:38:51;95723.75;;;16.48;33.83
7111;BME280;3597;42.650;23.386;2024-02-23T12:41:16;95718.94;;;16.54;33.90
7111;BME280;3597;42.650;23.386;2024-02-23T12:43:42;95739.69;;;16.80;34.13
7111;BME280;3597;42.650;23.386;2024-02-23T12:46:08;95737.84;;;16.88;34.02
7111;BME280;3597;42.650;23.386;2024-02-23T12:48:37;95717.13;;;16.87;34.35
7111;BME280;3597;42.650;23.386;2024-02-23T12:51:03;95718.53;;;16.93;32.23
7111;BME280;3597;42.650;23.386;2024-02-23T12:53:37;95737.97;;;17.01;33.74
7111;BME280;3597;42.650;23.386;2024-02-23T12:56:04;95731.50;;;16.98;34.11
7111;BME280;3597;42.650;23.386;2024-02-23T12:58:33;95719.97;;;17.00;33.96
7111;BME280;3597;42.650;23.386;2024-02-23T13:00:59;95717.81;;;17.12;34.19
7111;BME280;3597;42.650;23.386;2024-02-23T13:03:25;95724.53;;;17.16;33.89
7111;BME280;3597;42.650;23.386;2024-02-23T13:05:55;95720.56;;;17.12;33.07
7111;BME280;3597;42.650;23.386;2024-02-23T13:08:22;95722.66;;;17.06;33.83
7111;BME280;3597;42.650;23.386;2024-02-23T13:10:49;95723.84;;;17.10;33.97
7111;BME280;3597;42.650;23.386;2024-02-23T13:13:15;95713.66;;;17.05;33.35